createdAt,value
2022-11-18T00:01:05.651Z,22.34
2022-11-18T00:03:33.345Z,22.33
2022-11-18T00:06:01.250Z,22.33
2022-11-18T00:08:29.172Z,22.33
2022-11-18T00:10:57.105Z,22.32
2022-11-18T00:13:43.487Z,22.33
2022-11-18T00:16:12.200Z,22.31
2022-11-18T00:18:40.177Z,22.33
2022-11-18T00:21:09.494Z,22.31
2022-11-18T00:23:37.435Z,22.32
2022-11-18T00:26:05.718Z,22.31
2022-11-18T00:28:35.112Z,22.30
2022-11-18T00:31:04.152Z,22.31
2022-11-18T00:33:32.248Z,22.30
2022-11-18T00:36:00.247Z,22.30
2022-11-18T00:38:28.182Z,22.30
2022-11-18T00:41:02.469Z,22.28
2022-11-18T00:43:29.437Z,22.29
2022-11-18T00:45:59.067Z,22.29
2022-11-18T00:48:27.168Z,22.29
2022-11-18T00:50:56.174Z,22.27
2022-11-18T00:53:25.387Z,22.28
2022-11-18T00:55:53.371Z,22.28
2022-11-18T00:58:21.379Z,22.26
2022-11-18T01:00:52.244Z,22.25
2022-11-18T01:03:21.756Z,22.27
2022-11-18T01:05:49.847Z,22.27
2022-11-18T01:08:18.561Z,22.28
2022-11-18T01:10:46.471Z,22.28
2022-11-18T01:13:19.935Z,22.27
2022-11-18T01:15:49.012Z,22.28
2022-11-18T01:18:17.055Z,22.28
2022-11-18T01:20:46.436Z,22.28
2022-11-18T01:23:14.708Z,22.28
2022-11-18T01:25:43.673Z,22.27
2022-11-18T01:28:11.821Z,22.27
2022-11-18T01:30:40.289Z,22.27
2022-11-18T01:33:08.480Z,22.27
2022-11-18T01:35:36.607Z,22.28
2022-11-18T01:38:06.140Z,22.27
2022-11-18T01:40:34.301Z,22.27
2022-11-18T01:43:02.263Z,22.26
2022-11-18T01:45:33.036Z,22.27
2022-11-18T01:48:04.137Z,22.27
2022-11-18T01:50:32.047Z,22.26
2022-11-18T01:53:02.894Z,22.26
2022-11-18T01:55:34.332Z,22.26
2022-11-18T01:58:04.975Z,22.27
2022-11-18T02:00:32.937Z,22.26
2022-11-18T02:03:01.528Z,22.26
2022-11-18T02:05:29.448Z,22.25
2022-11-18T02:07:57.760Z,22.25
2022-11-18T02:10:26.141Z,22.25
2022-11-18T02:12:55.948Z,22.25
2022-11-18T02:15:27.686Z,22.25
2022-11-18T02:17:58.962Z,22.24
2022-11-18T02:20:31.962Z,22.24
2022-11-18T02:23:22.986Z,22.24
2022-11-18T02:26:00.801Z,22.25
2022-11-18T02:28:37.132Z,22.23
2022-11-18T02:31:08.507Z,22.22
2022-11-18T02:33:39.657Z,22.22
2022-11-18T02:36:10.946Z,22.21
2022-11-18T02:38:41.150Z,22.20
2022-11-18T02:41:10.638Z,22.20
2022-11-18T02:43:41.113Z,22.21
2022-11-18T02:46:11.301Z,22.20
2022-11-18T02:48:40.543Z,22.16
2022-11-18T02:51:09.488Z,22.15
2022-11-18T02:53:37.633Z,22.17
2022-11-18T02:56:05.890Z,22.15
2022-11-18T02:58:33.783Z,22.16
2022-11-18T03:01:02.300Z,22.16
2022-11-18T03:03:32.441Z,22.15
2022-11-18T03:06:09.777Z,22.15
2022-11-18T03:08:39.759Z,22.14
2022-11-18T03:11:12.163Z,22.14
2022-11-18T03:13:43.069Z,22.12
2022-11-18T03:16:12.555Z,22.13
2022-11-18T03:18:43.993Z,22.13
2022-11-18T03:21:13.351Z,22.13
2022-11-18T03:23:42.486Z,22.11
2022-11-18T03:26:12.565Z,22.10
2022-11-18T03:28:41.818Z,22.11
2022-11-18T03:31:11.112Z,22.13
2022-11-18T03:33:42.115Z,22.12
2022-11-18T03:36:11.093Z,22.13
2022-11-18T03:38:40.990Z,22.13
2022-11-18T03:41:09.967Z,22.14
2022-11-18T03:43:39.565Z,22.15
2022-11-18T03:46:08.521Z,22.14
2022-11-18T03:48:38.750Z,22.14
2022-11-18T03:51:09.332Z,22.15
2022-11-18T03:53:39.367Z,22.15
2022-11-18T03:56:17.530Z,22.15
2022-11-18T03:58:49.038Z,22.13
2022-11-18T04:01:18.336Z,22.15
2022-11-18T04:03:46.370Z,22.14
2022-11-18T04:06:18.041Z,22.14
2022-11-18T04:08:46.043Z,22.14
2022-11-18T04:11:36.135Z,22.14
2022-11-18T04:14:04.376Z,22.15
2022-11-18T04:16:32.304Z,22.14
2022-11-18T04:19:05.936Z,22.13
2022-11-18T04:21:35.726Z,22.14
2022-11-18T04:24:03.694Z,22.14
2022-11-18T04:26:32.476Z,22.13
2022-11-18T04:29:00.791Z,22.13
2022-11-18T04:31:28.730Z,22.14
2022-11-18T04:33:56.624Z,22.13
2022-11-18T04:36:24.592Z,22.12
2022-11-18T04:38:53.928Z,22.13
2022-11-18T04:41:41.826Z,22.12
2022-11-18T04:44:13.441Z,22.12
2022-11-18T04:46:42.839Z,22.13
2022-11-18T04:49:10.808Z,22.12
2022-11-18T04:51:38.693Z,22.11
2022-11-18T04:54:08.109Z,22.11
2022-11-18T04:56:36.005Z,22.11
2022-11-18T04:59:03.922Z,22.11
2022-11-18T05:01:31.872Z,22.09
2022-11-18T05:04:01.380Z,22.10
2022-11-18T05:06:29.395Z,22.09
2022-11-18T05:08:58.892Z,22.09
2022-11-18T05:11:45.646Z,22.08
2022-11-18T05:14:13.976Z,22.06
2022-11-18T05:16:41.920Z,22.05
2022-11-18T05:19:10.103Z,22.06
2022-11-18T05:21:38.038Z,22.06
2022-11-18T05:24:06.593Z,22.04
2022-11-18T05:26:35.883Z,22.04
2022-11-18T05:29:03.827Z,22.04
2022-11-18T05:31:31.768Z,22.05
2022-11-18T05:33:59.895Z,22.04
2022-11-18T05:36:27.808Z,22.03
2022-11-18T05:38:55.683Z,22.03
2022-11-18T05:41:41.081Z,22.04
2022-11-18T05:44:11.718Z,22.03
2022-11-18T05:46:40.439Z,22.04
2022-11-18T05:49:09.892Z,22.04
2022-11-18T05:51:37.803Z,22.04
2022-11-18T05:54:06.528Z,22.05
2022-11-18T05:56:37.933Z,22.05
2022-11-18T05:59:07.339Z,22.06
2022-11-18T06:01:38.060Z,22.05
2022-11-18T06:04:09.177Z,22.06
2022-11-18T06:06:37.081Z,22.06
2022-11-18T06:09:06.153Z,22.05
2022-11-18T06:11:34.799Z,22.06
2022-11-18T06:14:03.982Z,22.06
2022-11-18T06:16:35.299Z,22.08
2022-11-18T06:19:07.294Z,22.07
2022-11-18T06:21:35.250Z,22.08
2022-11-18T06:24:03.536Z,22.08
2022-11-18T06:26:31.514Z,22.08
2022-11-18T06:28:59.421Z,22.08
2022-11-18T06:31:27.332Z,22.08
2022-11-18T06:33:55.255Z,22.09
2022-11-18T06:36:24.565Z,22.08
2022-11-18T06:38:52.432Z,22.08
2022-11-18T06:41:20.381Z,22.05
2022-11-18T06:43:49.069Z,22.07
2022-11-18T06:46:46.687Z,22.07
2022-11-18T06:49:14.799Z,22.06
2022-11-18T06:51:44.385Z,22.06
2022-11-18T06:54:15.291Z,22.08
2022-11-18T06:56:43.192Z,22.07
2022-11-18T06:59:11.103Z,22.08
2022-11-18T07:01:39.799Z,22.09
2022-11-18T07:04:07.710Z,22.06
2022-11-18T07:06:35.993Z,22.06
2022-11-18T07:09:06.324Z,22.06
2022-11-18T07:11:34.226Z,22.07
2022-11-18T07:14:02.530Z,22.08
2022-11-18T07:16:30.500Z,22.07
2022-11-18T07:18:58.400Z,22.06
2022-11-18T07:21:29.411Z,22.08
2022-11-18T07:23:57.633Z,22.06
2022-11-18T07:26:26.950Z,22.09
2022-11-18T07:28:55.333Z,22.06
2022-11-18T07:31:23.339Z,22.08
2022-11-18T07:33:53.608Z,22.06
2022-11-18T07:36:23.470Z,22.06
2022-11-18T07:38:51.422Z,22.08
2022-11-18T07:41:20.147Z,22.06
2022-11-18T07:43:50.444Z,22.10
2022-11-18T07:46:19.484Z,22.10
2022-11-18T07:48:48.402Z,22.10
2022-11-18T07:51:18.490Z,22.10
2022-11-18T07:53:46.708Z,22.10
2022-11-18T07:56:14.947Z,22.11
2022-11-18T07:58:43.022Z,22.11
2022-11-18T08:01:13.330Z,22.12
2022-11-18T08:03:41.295Z,22.10
2022-11-18T08:06:10.116Z,22.11
2022-11-18T08:08:40.436Z,22.11
2022-11-18T08:11:11.316Z,22.12
2022-11-18T08:13:39.218Z,22.11
2022-11-18T08:16:14.053Z,22.10
2022-11-18T08:18:42.023Z,22.11
2022-11-18T08:21:09.974Z,22.10
2022-11-18T08:23:41.936Z,22.09
2022-11-18T08:26:11.803Z,22.09
2022-11-18T08:28:39.877Z,22.08
2022-11-18T08:31:11.764Z,22.06
2022-11-18T08:33:41.096Z,22.08
2022-11-18T08:36:10.061Z,22.06
2022-11-18T08:38:37.994Z,22.05
2022-11-18T08:41:07.358Z,22.04
2022-11-18T08:43:36.413Z,22.05
2022-11-18T08:46:04.777Z,22.05
2022-11-18T08:48:32.732Z,22.05
2022-11-18T08:51:02.191Z,22.07
2022-11-18T08:53:30.358Z,22.08
2022-11-18T08:55:58.785Z,22.06
2022-11-18T08:58:26.862Z,22.07
2022-11-18T09:00:54.852Z,22.08
2022-11-18T09:03:22.830Z,22.09
2022-11-18T09:05:50.889Z,22.08
2022-11-18T09:08:21.990Z,22.08
2022-11-18T09:10:49.883Z,22.07
2022-11-18T09:13:47.513Z,22.08
2022-11-18T09:16:06.168Z,22.08
2022-11-18T09:18:34.100Z,22.06
2022-11-18T09:21:02.897Z,22.07
2022-11-18T09:23:32.211Z,22.08
2022-11-18T09:26:00.487Z,22.08
2022-11-18T09:28:28.380Z,22.08
2022-11-18T09:30:56.885Z,22.09
2022-11-18T09:33:25.079Z,22.09
2022-11-18T09:35:53.094Z,22.10
2022-11-18T09:38:21.464Z,22.10
2022-11-18T09:40:56.426Z,22.09
2022-11-18T09:43:27.437Z,22.11
2022-11-18T09:45:56.786Z,22.09
2022-11-18T09:48:47.291Z,22.09
2022-11-18T09:51:15.686Z,22.09
2022-11-18T09:53:44.284Z,22.09
2022-11-18T09:56:16.579Z,22.09
2022-11-18T09:58:44.679Z,22.11
2022-11-18T10:01:14.793Z,22.10
2022-11-18T10:03:42.808Z,22.10
2022-11-18T10:06:23.414Z,22.10
2022-11-18T10:09:09.916Z,22.10
2022-11-18T10:11:45.169Z,22.10
2022-11-18T10:14:21.016Z,22.08
2022-11-18T10:16:57.717Z,22.10
2022-11-18T10:19:29.339Z,22.10
2022-11-18T10:22:06.284Z,22.11
2022-11-18T10:24:40.250Z,22.08
2022-11-18T10:27:12.963Z,22.09
2022-11-18T10:29:40.942Z,22.08
2022-11-18T10:32:10.347Z,22.09
2022-11-18T10:34:48.134Z,22.09
2022-11-18T10:37:38.697Z,22.09
2022-11-18T10:40:25.246Z,22.08
2022-11-18T10:42:55.122Z,22.08
2022-11-18T10:45:26.283Z,22.08
2022-11-18T10:48:09.200Z,22.10
2022-11-18T10:50:37.626Z,22.08
2022-11-18T10:53:06.416Z,22.06
2022-11-18T10:55:36.977Z,22.08
2022-11-18T10:58:10.957Z,22.08
2022-11-18T11:00:44.110Z,22.06
2022-11-18T11:03:31.383Z,22.08
2022-11-18T11:06:30.729Z,22.06
2022-11-18T11:09:00.599Z,22.04
2022-11-18T11:11:30.036Z,22.05
2022-11-18T11:14:14.385Z,22.05
2022-11-18T11:16:45.456Z,22.06
2022-11-18T11:19:14.979Z,22.05
2022-11-18T11:21:43.004Z,22.04
2022-11-18T11:24:14.083Z,22.03
2022-11-18T11:29:57.503Z,22.05
2022-11-18T11:32:29.949Z,22.04
2022-11-18T11:35:00.155Z,22.06
2022-11-18T11:37:30.879Z,22.05
2022-11-18T11:40:04.177Z,22.06
2022-11-18T11:42:37.643Z,22.06
2022-11-18T11:45:16.644Z,22.07
2022-11-18T11:47:50.490Z,22.07
2022-11-18T11:50:25.157Z,22.07
2022-11-18T11:53:03.794Z,22.06
2022-11-18T11:55:48.133Z,22.08
2022-11-18T11:58:22.202Z,22.07
2022-11-18T12:00:56.213Z,22.08
2022-11-18T12:03:38.667Z,22.08
2022-11-18T12:06:08.790Z,22.09
2022-11-18T12:08:38.670Z,22.10
2022-11-18T12:11:08.474Z,22.10
2022-11-18T12:13:39.577Z,22.11
2022-11-18T12:16:16.602Z,22.12
2022-11-18T12:18:48.950Z,22.13
2022-11-18T12:21:53.962Z,22.15
2022-11-18T12:24:32.840Z,22.17
2022-11-18T12:27:01.679Z,22.17
2022-11-18T12:29:41.922Z,22.19
2022-11-18T12:32:43.864Z,22.19
2022-11-18T12:35:24.548Z,22.20
2022-11-18T12:38:01.714Z,22.20
2022-11-18T12:40:37.479Z,22.21
2022-11-18T12:43:23.668Z,22.21
2022-11-18T12:45:53.797Z,22.23
2022-11-18T12:48:47.202Z,22.24
2022-11-18T12:51:47.871Z,22.25
2022-11-18T12:54:25.408Z,22.26
2022-11-18T12:56:53.606Z,22.28
2022-11-18T12:59:29.052Z,22.30
2022-11-18T13:02:21.217Z,22.33
2022-11-18T13:08:05.041Z,22.33
2022-11-18T13:10:34.420Z,22.33
2022-11-18T13:13:02.839Z,22.33
2022-11-18T13:15:56.523Z,22.35
2022-11-18T13:18:24.921Z,22.35
2022-11-18T13:20:56.531Z,22.38
2022-11-18T13:23:50.011Z,22.41
2022-11-18T13:26:20.808Z,22.42
2022-11-18T13:29:00.531Z,22.47
2022-11-18T13:31:32.997Z,22.52
2022-11-18T13:34:02.746Z,22.57
2022-11-18T13:36:32.482Z,22.60
2022-11-18T13:39:04.008Z,22.61
2022-11-18T13:41:36.039Z,22.60
2022-11-18T13:44:17.100Z,22.59
2022-11-18T13:46:45.122Z,22.59
2022-11-18T13:49:14.399Z,22.63
2022-11-18T13:51:42.350Z,22.66
2022-11-18T13:54:14.088Z,22.64
2022-11-18T13:56:42.031Z,22.64
2022-11-18T13:59:17.847Z,22.64
2022-11-18T14:01:46.439Z,22.64
2022-11-18T14:04:19.723Z,22.63
2022-11-18T14:06:48.343Z,22.64
2022-11-18T14:09:24.552Z,22.65
2022-11-18T14:12:02.568Z,22.64
2022-11-18T14:14:32.929Z,22.63
2022-11-18T14:17:17.772Z,22.63
2022-11-18T14:19:46.042Z,22.63
2022-11-18T14:22:15.384Z,22.63
2022-11-18T14:24:45.820Z,22.63
2022-11-18T14:27:38.804Z,22.61
2022-11-18T14:30:29.581Z,22.61
2022-11-18T14:33:27.715Z,22.61
2022-11-18T14:35:57.960Z,22.60
2022-11-18T14:38:47.716Z,22.61
2022-11-18T14:41:44.654Z,22.60
2022-11-18T14:44:15.374Z,22.61
2022-11-18T14:46:45.047Z,22.61
2022-11-18T14:49:15.933Z,22.61
2022-11-18T14:51:44.213Z,22.61
2022-11-18T14:54:17.214Z,22.61
2022-11-18T14:56:51.217Z,22.61
2022-11-18T14:59:20.822Z,22.60
2022-11-18T15:01:48.930Z,22.60
2022-11-18T15:04:18.665Z,22.59
2022-11-18T15:06:47.489Z,22.60
2022-11-18T15:09:17.263Z,22.61
2022-11-18T15:11:45.467Z,22.61
2022-11-18T15:14:14.711Z,22.60
2022-11-18T15:16:43.314Z,22.59
2022-11-18T15:19:13.490Z,22.59
2022-11-18T15:21:42.108Z,22.59
2022-11-18T15:24:10.035Z,22.58
2022-11-18T15:26:40.739Z,22.59
2022-11-18T15:29:10.039Z,22.58
2022-11-18T15:31:40.102Z,22.58
2022-11-18T15:34:08.787Z,22.59
2022-11-18T15:36:37.511Z,22.59
2022-11-18T15:39:05.511Z,22.60
2022-11-18T15:41:34.462Z,22.60
2022-11-18T15:44:03.352Z,22.59
2022-11-18T15:46:33.923Z,22.58
2022-11-18T15:49:03.223Z,22.56
2022-11-18T15:51:32.069Z,22.59
2022-11-18T15:54:00.017Z,22.56
2022-11-18T15:56:29.637Z,22.57
2022-11-18T15:58:58.276Z,22.57
2022-11-18T16:01:27.134Z,22.57
2022-11-18T16:03:55.118Z,22.56
2022-11-18T16:06:26.404Z,22.55
2022-11-18T16:08:59.232Z,22.55
2022-11-18T16:11:45.446Z,22.56
2022-11-18T16:14:13.803Z,22.57
2022-11-18T16:16:44.008Z,22.57
2022-11-18T16:19:12.576Z,22.57
2022-11-18T16:21:47.114Z,22.58
2022-11-18T16:24:16.175Z,22.58
2022-11-18T16:26:45.283Z,22.58
2022-11-18T16:29:15.163Z,22.57
2022-11-18T16:31:42.850Z,22.58
2022-11-18T16:34:11.892Z,22.58
2022-11-18T16:36:44.501Z,22.58
2022-11-18T16:39:13.382Z,22.59
2022-11-18T16:41:42.174Z,22.58
2022-11-18T16:44:10.717Z,22.58
2022-11-18T16:46:40.563Z,22.59
2022-11-18T16:49:08.711Z,22.58
2022-11-18T16:51:37.414Z,22.58
2022-11-18T16:54:08.109Z,22.58
2022-11-18T16:56:37.563Z,22.59
2022-11-18T16:59:07.603Z,22.59
2022-11-18T17:01:35.597Z,22.59
2022-11-18T17:04:04.314Z,22.60
2022-11-18T17:06:33.800Z,22.60
2022-11-18T17:09:02.543Z,22.60
2022-11-18T17:11:31.829Z,22.60
2022-11-18T17:14:00.475Z,22.60
2022-11-18T17:16:28.382Z,22.60
2022-11-18T17:18:57.424Z,22.60
2022-11-18T17:21:25.476Z,22.61
2022-11-18T17:23:54.171Z,22.60
2022-11-18T17:26:23.528Z,22.60
2022-11-18T17:28:54.523Z,22.60
2022-11-18T17:31:23.121Z,22.60
2022-11-18T17:33:52.906Z,22.61
2022-11-18T17:36:21.794Z,22.61
2022-11-18T17:38:51.252Z,22.60
2022-11-18T17:41:33.893Z,22.61
2022-11-18T17:44:04.468Z,22.59
2022-11-18T17:46:37.791Z,22.59
2022-11-18T17:49:07.777Z,22.59
2022-11-18T17:51:35.633Z,22.58
2022-11-18T17:54:04.377Z,22.58
2022-11-18T17:56:32.305Z,22.57
2022-11-18T17:59:01.012Z,22.59
2022-11-18T18:01:30.470Z,22.58
2022-11-18T18:03:59.561Z,22.58
2022-11-18T18:06:29.657Z,22.58
2022-11-18T18:08:59.044Z,22.59
2022-11-18T18:11:27.195Z,22.58
2022-11-18T18:14:13.811Z,22.56
2022-11-18T18:16:44.676Z,22.56
2022-11-18T18:19:15.621Z,22.57
2022-11-18T18:21:43.608Z,22.56
2022-11-18T18:24:12.542Z,22.56
2022-11-18T18:26:40.476Z,22.56
2022-11-18T18:29:09.103Z,22.56
2022-11-18T18:31:40.221Z,22.57
2022-11-18T18:34:11.573Z,22.56
2022-11-18T18:36:39.583Z,22.56
2022-11-18T18:39:08.229Z,22.57
2022-11-18T18:41:36.405Z,22.56
2022-11-18T18:44:05.118Z,22.55
2022-11-18T18:46:32.468Z,22.56
2022-11-18T18:49:03.626Z,22.55
2022-11-18T18:51:33.867Z,22.56
2022-11-18T18:54:02.635Z,22.57
2022-11-18T18:56:30.617Z,22.58
2022-11-18T18:58:59.503Z,22.58
2022-11-18T19:01:27.672Z,22.58
2022-11-18T19:03:57.235Z,22.60
2022-11-18T19:09:21.725Z,22.60
2022-11-18T19:12:07.071Z,22.62
2022-11-18T19:14:36.626Z,22.61
2022-11-18T19:17:10.095Z,22.64
2022-11-18T19:19:57.478Z,22.64
2022-11-18T19:22:25.425Z,22.64
2022-11-18T19:24:55.876Z,22.65
2022-11-18T19:27:25.471Z,22.65
2022-11-18T19:29:54.340Z,22.66
2022-11-18T19:32:22.396Z,22.67
2022-11-18T19:34:51.602Z,22.66
2022-11-18T19:37:19.537Z,22.67
2022-11-18T19:39:48.102Z,22.66
2022-11-18T19:42:17.326Z,22.68
2022-11-18T19:44:46.703Z,22.67
2022-11-18T19:47:14.662Z,22.68
2022-11-18T19:49:43.731Z,22.69
2022-11-18T19:52:11.641Z,22.69
2022-11-18T19:54:41.763Z,22.68
2022-11-18T19:57:09.699Z,22.68
2022-11-18T19:59:40.301Z,22.67
2022-11-18T20:02:08.389Z,22.67
2022-11-18T20:04:37.102Z,22.67
2022-11-18T20:07:05.879Z,22.68
2022-11-18T20:09:34.564Z,22.67
2022-11-18T20:12:02.460Z,22.67
2022-11-18T20:14:31.074Z,22.66
2022-11-18T20:17:00.362Z,22.66
2022-11-18T20:19:29.566Z,22.66
2022-11-18T20:21:57.492Z,22.66
2022-11-18T20:24:26.070Z,22.66
2022-11-18T20:26:53.995Z,22.66
2022-11-18T20:29:22.714Z,22.66
2022-11-18T20:31:50.770Z,22.65
2022-11-18T20:34:20.059Z,22.66
2022-11-18T20:36:52.752Z,22.66
2022-11-18T20:39:20.950Z,22.65
2022-11-18T20:42:13.835Z,22.65
2022-11-18T20:44:42.435Z,22.65
2022-11-18T20:47:10.331Z,22.65
2022-11-18T20:49:40.402Z,22.64
2022-11-18T20:52:08.252Z,22.64
2022-11-18T20:54:37.776Z,22.64
2022-11-18T20:57:06.160Z,22.64
2022-11-18T20:59:34.082Z,22.64
2022-11-18T21:02:02.800Z,22.64
2022-11-18T21:04:30.849Z,22.64
2022-11-18T21:07:02.465Z,22.64
2022-11-18T21:09:33.569Z,22.63
2022-11-18T21:12:02.338Z,22.64
2022-11-18T21:14:29.255Z,22.65
2022-11-18T21:17:01.079Z,22.63
2022-11-18T21:19:29.138Z,22.64
2022-11-18T21:21:56.884Z,22.65
2022-11-18T21:24:28.783Z,22.66
2022-11-18T21:26:58.037Z,22.66
2022-11-18T21:29:26.943Z,22.68
2022-11-18T21:31:56.146Z,22.68
2022-11-18T21:34:24.425Z,22.68
2022-11-18T21:36:54.888Z,22.69
2022-11-18T21:39:23.552Z,22.69
2022-11-18T21:41:56.663Z,22.70
2022-11-18T21:44:25.549Z,22.69
2022-11-18T21:46:54.324Z,22.70
2022-11-18T21:49:22.890Z,22.69
2022-11-18T21:51:51.754Z,22.70
2022-11-18T21:54:19.729Z,22.70
2022-11-18T21:56:50.749Z,22.70
2022-11-18T21:59:20.819Z,22.70
2022-11-18T22:01:49.657Z,22.71
2022-11-18T22:04:31.388Z,22.70
2022-11-18T22:07:01.024Z,22.69
2022-11-18T22:09:34.632Z,22.69
2022-11-18T22:12:04.962Z,22.69
2022-11-18T22:14:34.214Z,22.68
2022-11-18T22:17:02.908Z,22.69
2022-11-18T22:19:30.913Z,22.68
2022-11-18T22:21:59.591Z,22.67
2022-11-18T22:24:27.572Z,22.66
2022-11-18T22:26:56.184Z,22.66
2022-11-18T22:29:26.048Z,22.66
2022-11-18T22:31:56.093Z,22.65
2022-11-18T22:34:24.090Z,22.64
2022-11-18T22:36:52.736Z,22.65
2022-11-18T22:39:21.165Z,22.64
2022-11-18T22:42:18.748Z,22.64
2022-11-18T22:44:46.615Z,22.63
2022-11-18T22:47:16.582Z,22.63
2022-11-18T22:50:51.768Z,22.63
2022-11-18T22:53:20.406Z,22.61
2022-11-18T22:55:48.311Z,22.60
2022-11-18T22:58:16.883Z,22.60
2022-11-18T23:00:45.388Z,22.59
2022-11-18T23:03:15.317Z,22.59
2022-11-18T23:05:47.425Z,22.58
2022-11-18T23:08:15.885Z,22.58
2022-11-18T23:10:44.129Z,22.58
2022-11-18T23:13:29.446Z,22.59
2022-11-18T23:15:58.881Z,22.58
2022-11-18T23:18:28.762Z,22.57
2022-11-18T23:20:59.964Z,22.58
2022-11-18T23:23:27.934Z,22.58
2022-11-18T23:25:55.976Z,22.57
2022-11-18T23:28:24.110Z,22.57
2022-11-18T23:30:52.095Z,22.57
2022-11-18T23:33:19.983Z,22.56
2022-11-18T23:35:54.482Z,22.56
2022-11-18T23:38:22.453Z,22.56
2022-11-18T23:40:55.478Z,22.56
2022-11-18T23:43:23.559Z,22.57
2022-11-18T23:45:51.632Z,22.58
2022-11-18T23:48:19.652Z,22.59
2022-11-18T23:50:55.817Z,22.59
2022-11-18T23:53:23.786Z,22.60
2022-11-18T23:55:51.754Z,22.60
2022-11-18T23:58:19.800Z,22.61
